createdAt,value
2023-03-29T00:02:53.774Z,500.00
2023-03-29T00:06:54.670Z,500.00
2023-03-29T00:10:54.679Z,405.00
2023-03-29T00:14:54.764Z,471.00
2023-03-29T00:18:54.756Z,500.00
2023-03-29T00:22:54.697Z,502.00
2023-03-29T00:26:54.704Z,501.00
2023-03-29T00:30:54.708Z,503.00
2023-03-29T00:34:54.729Z,502.00
2023-03-29T00:38:54.688Z,507.00
2023-03-29T00:42:54.706Z,510.00
2023-03-29T00:46:54.904Z,500.00
2023-03-29T00:50:54.780Z,497.00
2023-03-29T00:54:54.729Z,506.00
2023-03-29T00:58:54.736Z,510.00
2023-03-29T01:02:55.012Z,507.00
2023-03-29T01:06:55.105Z,509.00
2023-03-29T01:10:54.712Z,508.00
2023-03-29T01:14:54.741Z,508.00
2023-03-29T01:18:54.742Z,501.00
2023-03-29T01:22:54.795Z,508.00
2023-03-29T01:26:54.746Z,505.00
2023-03-29T01:30:54.760Z,508.00
2023-03-29T01:34:54.722Z,503.00
2023-03-29T01:38:54.789Z,506.00
2023-03-29T01:42:54.686Z,506.00
2023-03-29T01:46:54.316Z,510.00
2023-03-29T01:50:54.287Z,507.00
2023-03-29T01:54:54.773Z,508.00
2023-03-29T01:58:54.774Z,510.00
2023-03-29T02:02:54.852Z,503.00
2023-03-29T02:06:54.319Z,503.00
2023-03-29T02:10:54.388Z,502.00
2023-03-29T02:14:54.270Z,508.00
2023-03-29T02:18:54.209Z,510.00
2023-03-29T02:22:54.218Z,511.00
2023-03-29T02:26:54.192Z,502.00
2023-03-29T02:30:54.132Z,506.00
2023-03-29T02:34:54.055Z,506.00
2023-03-29T02:38:54.047Z,510.00
2023-03-29T02:42:54.171Z,507.00
2023-03-29T02:46:53.998Z,503.00
2023-03-29T02:50:53.967Z,506.00
2023-03-29T02:54:53.910Z,508.00
2023-03-29T02:58:53.895Z,508.00
2023-03-29T03:02:54.042Z,504.00
2023-03-29T03:06:53.913Z,513.00
2023-03-29T03:10:53.840Z,504.00
2023-03-29T03:14:53.848Z,511.00
2023-03-29T03:18:54.113Z,509.00
2023-03-29T03:22:53.781Z,503.00
2023-03-29T03:26:53.717Z,510.00
2023-03-29T03:30:53.674Z,504.00
2023-03-29T03:34:53.705Z,511.00
2023-03-29T03:38:53.626Z,508.00
2023-03-29T03:42:53.573Z,510.00
2023-03-29T03:46:53.590Z,511.00
2023-03-29T03:50:53.595Z,506.00
2023-03-29T03:54:53.562Z,510.00
2023-03-29T03:58:53.528Z,507.00
2023-03-29T04:02:53.596Z,508.00
2023-03-29T04:06:53.428Z,512.00
2023-03-29T04:10:53.390Z,508.00
2023-03-29T04:14:53.575Z,508.00
2023-03-29T04:18:53.624Z,512.00
2023-03-29T04:22:53.504Z,513.00
2023-03-29T04:26:53.465Z,510.00
2023-03-29T04:30:53.660Z,504.00
2023-03-29T04:34:53.438Z,511.00
2023-03-29T04:38:53.598Z,506.00
2023-03-29T04:42:53.595Z,510.00
2023-03-29T04:46:53.332Z,505.00
2023-03-29T04:50:53.629Z,503.00
2023-03-29T04:54:53.216Z,511.00
2023-03-29T04:58:53.180Z,513.00
2023-03-29T05:02:55.189Z,509.00
2023-03-29T05:06:53.132Z,510.00
2023-03-29T05:10:53.074Z,505.00
2023-03-29T05:14:53.106Z,507.00
2023-03-29T05:18:53.117Z,513.00
2023-03-29T05:22:53.136Z,508.00
2023-03-29T05:26:52.925Z,510.00
2023-03-29T05:30:53.116Z,505.00
2023-03-29T05:34:53.122Z,507.00
2023-03-29T05:38:53.142Z,516.00
2023-03-29T05:42:53.121Z,530.00
2023-03-29T05:46:53.130Z,544.00
2023-03-29T05:50:53.120Z,559.00
2023-03-29T05:54:52.904Z,581.00
2023-03-29T05:58:54.881Z,592.00
2023-03-29T06:02:53.228Z,604.00
2023-03-29T06:06:53.130Z,608.00
2023-03-29T06:10:53.168Z,604.00
2023-03-29T06:14:53.127Z,598.00
2023-03-29T06:18:53.135Z,602.00
2023-03-29T06:22:53.128Z,601.00
2023-03-29T06:26:53.158Z,600.00
2023-03-29T06:30:53.179Z,590.00
2023-03-29T06:34:53.169Z,591.00
2023-03-29T06:38:53.149Z,588.00
2023-03-29T06:42:53.227Z,586.00
2023-03-29T06:46:53.176Z,580.00
2023-03-29T06:50:56.349Z,577.00
2023-03-29T06:54:53.147Z,578.00
2023-03-29T06:58:53.178Z,572.00
2023-03-29T07:02:53.216Z,569.00
2023-03-29T07:06:53.147Z,561.00
2023-03-29T07:10:53.161Z,564.00
2023-03-29T07:14:53.690Z,559.00
2023-03-29T07:18:53.146Z,555.00
2023-03-29T07:22:53.664Z,554.00
2023-03-29T07:30:52.202Z,549.00
2023-03-29T07:34:53.163Z,565.00
2023-03-29T07:38:55.878Z,582.00
2023-03-29T07:42:53.185Z,609.00
2023-03-29T07:46:53.224Z,727.00
2023-03-29T07:50:53.198Z,831.00
2023-03-29T07:54:53.188Z,901.00
2023-03-29T07:58:53.157Z,958.00
2023-03-29T08:02:56.492Z,980.00
2023-03-29T08:06:52.669Z,745.00
2023-03-29T08:10:52.686Z,613.00
2023-03-29T08:14:53.727Z,565.00
2023-03-29T08:18:53.195Z,518.00
2023-03-29T08:22:53.184Z,511.00
2023-03-29T08:26:53.689Z,498.00
2023-03-29T08:30:53.235Z,522.00
2023-03-29T08:34:54.137Z,506.00
2023-03-29T08:38:53.679Z,501.00
2023-03-29T08:42:54.197Z,514.00
2023-03-29T08:46:54.806Z,584.00
2023-03-29T08:50:54.368Z,670.00
2023-03-29T08:54:54.681Z,830.00
2023-03-29T08:58:54.182Z,973.00
2023-03-29T09:02:54.372Z,1058.00
2023-03-29T09:06:54.223Z,1112.00
2023-03-29T09:10:53.890Z,1220.00
2023-03-29T09:14:54.191Z,1242.00
2023-03-29T09:18:54.196Z,1291.00
2023-03-29T09:22:53.908Z,1345.00
2023-03-29T09:30:54.210Z,1443.00
2023-03-29T09:34:54.202Z,1504.00
2023-03-29T09:38:54.381Z,1484.00
2023-03-29T09:42:54.178Z,1804.00
2023-03-29T09:46:54.205Z,1801.00
2023-03-29T09:50:54.203Z,1841.00
2023-03-29T09:54:54.233Z,1862.00
2023-03-29T09:58:54.222Z,1896.00
2023-03-29T10:02:53.871Z,1939.00
2023-03-29T10:06:53.706Z,1966.00
2023-03-29T10:10:53.736Z,1977.00
2023-03-29T10:14:54.332Z,2001.00
2023-03-29T10:18:53.745Z,2039.00
2023-03-29T10:22:54.246Z,2070.00
2023-03-29T10:26:53.745Z,2107.00
2023-03-29T10:30:53.734Z,2100.00
2023-03-29T10:34:53.785Z,2127.00
2023-03-29T10:38:53.557Z,1247.00
2023-03-29T10:42:53.769Z,500.00
2023-03-29T10:46:53.727Z,566.00
2023-03-29T10:50:53.730Z,663.00
2023-03-29T10:54:54.226Z,826.00
2023-03-29T10:58:54.252Z,1032.00
2023-03-29T11:02:54.397Z,1155.00
2023-03-29T11:06:54.734Z,1293.00
2023-03-29T11:10:54.228Z,1340.00
2023-03-29T11:14:54.201Z,1305.00
2023-03-29T11:18:54.235Z,1332.00
2023-03-29T11:22:54.233Z,1356.00
2023-03-29T11:26:54.235Z,1377.00
2023-03-29T11:30:54.255Z,1372.00
2023-03-29T11:34:54.240Z,1413.00
2023-03-29T11:38:54.246Z,1407.00
2023-03-29T11:42:54.240Z,1421.00
2023-03-29T11:46:54.269Z,1423.00
2023-03-29T11:50:54.243Z,1444.00
2023-03-29T11:54:54.177Z,1430.00
2023-03-29T11:58:54.245Z,1458.00
2023-03-29T12:02:54.377Z,1478.00
2023-03-29T12:06:54.249Z,1450.00
2023-03-29T12:10:55.029Z,1413.00
2023-03-29T12:14:54.771Z,1183.00
2023-03-29T12:18:55.038Z,601.00
2023-03-29T12:22:54.780Z,498.00
2023-03-29T12:26:54.642Z,569.00
2023-03-29T12:30:54.770Z,647.00
2023-03-29T12:34:55.309Z,828.00
2023-03-29T12:38:55.262Z,962.00
2023-03-29T12:42:55.271Z,1102.00
2023-03-29T12:46:55.169Z,1190.00
2023-03-29T12:50:55.293Z,1277.00
2023-03-29T12:54:55.315Z,1374.00
2023-03-29T12:58:55.290Z,1365.00
2023-03-29T13:02:55.319Z,1351.00
2023-03-29T13:06:55.810Z,1263.00
2023-03-29T13:10:55.508Z,1242.00
2023-03-29T13:14:55.782Z,1169.00
2023-03-29T13:18:56.280Z,1234.00
2023-03-29T13:22:55.812Z,1271.00
2023-03-29T13:26:55.339Z,1288.00
2023-03-29T13:30:55.873Z,1282.00
2023-03-29T13:34:55.480Z,1281.00
2023-03-29T13:38:55.485Z,1281.00
2023-03-29T13:42:55.433Z,1286.00
2023-03-29T13:46:55.856Z,1270.00
2023-03-29T13:50:55.791Z,1261.00
2023-03-29T13:54:55.816Z,1262.00
2023-03-29T13:58:55.296Z,1248.00
2023-03-29T14:02:55.346Z,1249.00
2023-03-29T14:06:55.299Z,1230.00
2023-03-29T14:10:55.331Z,1247.00
2023-03-29T14:14:59.099Z,1229.00
2023-03-29T14:18:55.298Z,1236.00
2023-03-29T14:22:55.800Z,1219.00
2023-03-29T14:26:55.038Z,1212.00
2023-03-29T14:30:55.312Z,1188.00
2023-03-29T14:34:55.728Z,1183.00
2023-03-29T14:38:55.315Z,1171.00
2023-03-29T14:42:55.332Z,1166.00
2023-03-29T14:46:56.308Z,1150.00
2023-03-29T14:50:54.784Z,1156.00
2023-03-29T14:54:54.808Z,1132.00
2023-03-29T14:58:54.845Z,1120.00
2023-03-29T15:02:54.902Z,1111.00
2023-03-29T15:06:54.838Z,1099.00
2023-03-29T15:10:54.729Z,1100.00
2023-03-29T15:14:54.733Z,1086.00
2023-03-29T15:18:54.728Z,1076.00
2023-03-29T15:22:54.823Z,1067.00
2023-03-29T15:26:54.690Z,1056.00
2023-03-29T15:31:06.801Z,1055.00
2023-03-29T15:34:54.652Z,1056.00
2023-03-29T15:38:54.612Z,1028.00
2023-03-29T15:42:54.581Z,1027.00
2023-03-29T15:46:54.667Z,1021.00
2023-03-29T15:50:54.498Z,1007.00
2023-03-29T15:54:54.831Z,1008.00
2023-03-29T15:58:54.429Z,989.00
2023-03-29T16:02:54.470Z,978.00
2023-03-29T16:06:54.358Z,979.00
2023-03-29T16:10:54.308Z,979.00
2023-03-29T16:14:54.293Z,962.00
2023-03-29T16:18:54.254Z,971.00
2023-03-29T16:22:54.210Z,955.00
2023-03-29T16:26:55.739Z,959.00
2023-03-29T16:30:54.123Z,951.00
2023-03-29T16:34:54.109Z,948.00
2023-03-29T16:38:54.046Z,947.00
2023-03-29T16:42:54.025Z,942.00
2023-03-29T16:46:54.447Z,940.00
2023-03-29T16:50:54.012Z,941.00
2023-03-29T16:54:53.894Z,929.00
2023-03-29T16:58:53.868Z,948.00
2023-03-29T17:02:53.831Z,936.00
2023-03-29T17:06:53.833Z,929.00
2023-03-29T17:10:53.738Z,931.00
2023-03-29T17:14:53.722Z,931.00
2023-03-29T17:18:53.666Z,926.00
2023-03-29T17:22:53.725Z,923.00
2023-03-29T17:26:53.788Z,925.00
2023-03-29T17:30:54.380Z,937.00
2023-03-29T17:34:53.979Z,921.00
2023-03-29T17:38:54.093Z,922.00
2023-03-29T17:42:54.153Z,915.00
2023-03-29T17:46:54.274Z,924.00
2023-03-29T17:50:54.347Z,909.00
2023-03-29T17:54:54.510Z,907.00
2023-03-29T17:58:54.597Z,911.00
2023-03-29T18:02:55.033Z,906.00
2023-03-29T18:06:54.815Z,897.00
2023-03-29T18:10:54.931Z,897.00
2023-03-29T18:14:54.999Z,892.00
2023-03-29T18:18:55.103Z,889.00
2023-03-29T18:22:55.388Z,905.00
2023-03-29T18:26:55.366Z,887.00
2023-03-29T18:30:55.476Z,875.00
2023-03-29T18:34:56.252Z,886.00
2023-03-29T18:38:55.765Z,878.00
2023-03-29T18:42:55.925Z,859.00
2023-03-29T18:46:56.337Z,857.00
2023-03-29T18:50:56.897Z,846.00
2023-03-29T18:54:56.400Z,847.00
2023-03-29T18:58:56.489Z,847.00
2023-03-29T19:02:56.706Z,835.00
2023-03-29T19:06:56.917Z,833.00
2023-03-29T19:10:56.909Z,826.00
2023-03-29T19:18:56.328Z,827.00
2023-03-29T19:26:56.459Z,810.00
2023-03-29T19:34:56.700Z,802.00
2023-03-29T19:42:57.342Z,787.00
2023-03-29T19:50:57.339Z,779.00
2023-03-29T19:58:57.575Z,762.00
2023-03-29T20:06:57.846Z,757.00
2023-03-29T23:07:05.939Z,613.00
